createdAt,value
2023-04-20T00:01:25.052Z,12.12
2023-04-20T00:03:52.570Z,11.95
2023-04-20T00:06:21.750Z,11.85
2023-04-20T00:08:49.071Z,11.88
2023-04-20T00:11:16.292Z,11.82
2023-04-20T00:13:43.435Z,11.77
2023-04-20T00:16:10.704Z,11.77
2023-04-20T00:18:37.787Z,11.75
2023-04-20T00:21:05.838Z,11.67
2023-04-20T00:23:33.046Z,11.63
2023-04-20T00:26:00.195Z,11.64
2023-04-20T00:28:27.329Z,11.57
2023-04-20T00:30:54.452Z,11.40
2023-04-20T00:33:21.571Z,11.35
2023-04-20T00:35:48.927Z,11.51
2023-04-20T00:38:16.417Z,11.43
2023-04-20T00:40:44.548Z,11.33
2023-04-20T00:43:13.263Z,11.23
2023-04-20T00:45:40.689Z,11.13
2023-04-20T00:48:07.892Z,11.07
2023-04-20T00:50:35.938Z,10.99
2023-04-20T00:53:03.261Z,10.87
2023-04-20T00:55:31.186Z,10.75
2023-04-20T00:57:58.936Z,10.68
2023-04-20T01:00:27.389Z,10.64
2023-04-20T01:02:54.796Z,10.65
2023-04-20T01:05:22.172Z,10.62
2023-04-20T01:07:49.640Z,10.67
2023-04-20T01:10:16.844Z,10.64
2023-04-20T01:12:44.685Z,10.63
2023-04-20T01:15:12.319Z,10.64
2023-04-20T01:17:40.056Z,10.64
2023-04-20T01:20:09.177Z,10.59
2023-04-20T01:22:51.300Z,10.54
2023-04-20T01:25:18.617Z,10.54
2023-04-20T01:27:46.475Z,10.52
2023-04-20T01:30:13.838Z,10.42
2023-04-20T01:32:41.343Z,10.33
2023-04-20T01:35:09.192Z,10.39
2023-04-20T01:37:39.778Z,10.40
2023-04-20T01:40:10.153Z,10.37
2023-04-20T01:42:37.929Z,10.31
2023-04-20T01:45:06.498Z,10.28
2023-04-20T01:47:34.365Z,10.27
2023-04-20T01:50:01.560Z,10.18
2023-04-20T01:52:28.644Z,10.14
2023-04-20T01:54:55.833Z,10.08
2023-04-20T01:57:25.213Z,10.08
2023-04-20T01:59:52.353Z,10.06
2023-04-20T02:02:19.550Z,10.00
2023-04-20T02:04:46.847Z,9.98
2023-04-20T02:07:13.989Z,9.93
2023-04-20T02:09:41.074Z,9.87
2023-04-20T02:12:08.164Z,9.82
2023-04-20T02:14:35.313Z,9.87
2023-04-20T02:17:02.476Z,9.86
2023-04-20T02:19:29.648Z,9.78
2023-04-20T02:21:56.904Z,9.68
2023-04-20T02:24:24.073Z,9.66
2023-04-20T02:26:51.330Z,9.65
2023-04-20T02:29:18.665Z,9.61
2023-04-20T02:31:46.017Z,9.53
2023-04-20T02:34:16.725Z,9.48
2023-04-20T02:36:43.871Z,9.37
2023-04-20T02:39:13.277Z,9.31
2023-04-20T02:41:40.702Z,9.28
2023-04-20T02:44:07.852Z,9.26
2023-04-20T02:46:37.406Z,9.27
2023-04-20T02:49:05.152Z,9.20
2023-04-20T02:51:37.016Z,9.19
2023-04-20T02:54:04.574Z,9.10
2023-04-20T02:56:32.344Z,9.09
2023-04-20T02:59:04.447Z,9.10
2023-04-20T03:01:43.393Z,8.99
2023-04-20T03:04:15.699Z,9.05
2023-04-20T03:07:09.511Z,9.10
2023-04-20T03:09:38.972Z,9.09
2023-04-20T03:12:23.143Z,8.99
2023-04-20T03:15:11.280Z,8.96
2023-04-20T03:17:50.817Z,8.97
2023-04-20T03:20:18.238Z,8.92
2023-04-20T03:22:45.492Z,8.83
2023-04-20T03:25:12.668Z,8.80
2023-04-20T03:27:51.318Z,8.77
2023-04-20T03:30:19.883Z,8.78
2023-04-20T03:32:52.634Z,8.80
2023-04-20T03:35:20.962Z,8.79
2023-04-20T03:37:48.450Z,8.73
2023-04-20T03:40:15.724Z,8.68
2023-04-20T03:42:42.859Z,8.68
2023-04-20T03:45:10.556Z,8.58
2023-04-20T03:47:37.808Z,8.54
2023-04-20T03:50:06.434Z,8.53
2023-04-20T03:52:33.555Z,8.50
2023-04-20T03:55:04.543Z,8.47
2023-04-20T03:57:33.865Z,8.46
2023-04-20T04:00:03.692Z,8.40
2023-04-20T04:02:45.864Z,8.41
2023-04-20T04:05:15.885Z,8.51
2023-04-20T04:07:43.388Z,8.49
2023-04-20T04:10:11.989Z,8.44
2023-04-20T04:12:39.531Z,8.32
2023-04-20T04:15:08.046Z,8.20
2023-04-20T04:17:40.976Z,8.07
2023-04-20T04:20:09.191Z,8.06
2023-04-20T04:22:37.161Z,7.96
2023-04-20T04:25:29.724Z,7.98
2023-04-20T04:27:57.543Z,7.91
2023-04-20T04:30:26.446Z,8.02
2023-04-20T04:32:54.370Z,8.19
2023-04-20T04:35:22.200Z,8.24
2023-04-20T04:37:49.745Z,8.26
2023-04-20T04:40:18.235Z,8.29
2023-04-20T04:42:48.587Z,8.47
2023-04-20T04:45:16.506Z,8.66
2023-04-20T04:47:44.680Z,8.82
2023-04-20T04:50:12.915Z,9.02
2023-04-20T04:52:40.309Z,9.07
2023-04-20T04:55:09.590Z,9.15
2023-04-20T04:57:38.491Z,9.29
2023-04-20T05:00:11.529Z,9.40
2023-04-20T05:02:38.956Z,9.47
2023-04-20T05:05:09.414Z,9.56
2023-04-20T05:07:38.279Z,9.62
2023-04-20T05:10:06.945Z,9.69
2023-04-20T05:12:34.060Z,9.82
2023-04-20T05:15:01.210Z,9.83
2023-04-20T05:17:28.395Z,9.94
2023-04-20T05:19:55.635Z,9.93
2023-04-20T05:22:22.793Z,10.14
2023-04-20T05:24:50.148Z,10.14
2023-04-20T05:27:17.250Z,10.33
2023-04-20T05:29:44.323Z,10.49
2023-04-20T05:32:11.462Z,10.54
2023-04-20T05:34:38.557Z,10.76
2023-04-20T05:37:06.170Z,10.84
2023-04-20T05:39:33.322Z,10.88
2023-04-20T05:42:00.480Z,11.09
2023-04-20T05:44:27.650Z,11.30
2023-04-20T05:46:55.050Z,11.41
2023-04-20T05:49:22.294Z,11.58
2023-04-20T05:51:49.408Z,11.70
2023-04-20T05:54:16.923Z,11.86
2023-04-20T05:56:44.094Z,11.87
2023-04-20T05:59:11.272Z,11.89
2023-04-20T06:01:38.435Z,11.78
2023-04-20T06:04:05.954Z,11.89
2023-04-20T06:06:33.185Z,11.79
2023-04-20T06:09:00.352Z,11.82
2023-04-20T06:11:27.513Z,11.78
2023-04-20T06:13:54.609Z,11.83
2023-04-20T06:16:21.780Z,11.70
2023-04-20T06:18:49.236Z,11.70
2023-04-20T06:21:17.419Z,11.87
2023-04-20T06:23:44.697Z,11.93
2023-04-20T06:26:11.885Z,12.23
2023-04-20T06:28:39.167Z,12.50
2023-04-20T06:31:06.725Z,12.62
2023-04-20T06:33:33.996Z,12.79
2023-04-20T06:36:01.092Z,12.82
2023-04-20T06:38:28.252Z,12.89
2023-04-20T06:40:57.428Z,12.90
2023-04-20T06:43:24.544Z,12.87
2023-04-20T06:45:51.647Z,12.84
2023-04-20T06:48:31.390Z,12.80
2023-04-20T06:50:59.901Z,12.89
2023-04-20T06:53:26.992Z,12.92
2023-04-20T06:55:55.542Z,13.08
2023-04-20T06:58:22.766Z,13.20
2023-04-20T07:00:49.839Z,13.28
2023-04-20T07:03:18.906Z,13.26
2023-04-20T07:05:46.712Z,13.12
2023-04-20T07:08:15.892Z,13.28
2023-04-20T07:10:43.400Z,13.50
2023-04-20T07:13:10.716Z,13.67
2023-04-20T07:15:38.142Z,13.53
2023-04-20T07:18:05.567Z,13.88
2023-04-20T07:20:33.215Z,13.98
2023-04-20T07:23:00.390Z,14.15
2023-04-20T07:25:27.844Z,14.24
2023-04-20T07:27:55.132Z,14.28
2023-04-20T07:30:22.441Z,14.48
2023-04-20T07:32:49.683Z,14.52
2023-04-20T07:35:16.793Z,14.68
2023-04-20T07:37:43.995Z,14.80
2023-04-20T07:40:11.310Z,15.05
2023-04-20T07:42:38.451Z,15.05
2023-04-20T07:45:06.841Z,15.03
2023-04-20T07:47:35.277Z,14.86
2023-04-20T07:50:03.603Z,14.71
2023-04-20T07:52:30.896Z,14.70
2023-04-20T07:54:59.265Z,14.81
2023-04-20T07:57:26.802Z,14.92
2023-04-20T07:59:54.160Z,15.41
2023-04-20T08:02:21.405Z,15.37
2023-04-20T08:04:49.931Z,15.45
2023-04-20T08:07:17.884Z,15.35
2023-04-20T08:09:45.096Z,15.46
2023-04-20T08:12:12.252Z,15.48
2023-04-20T08:14:41.281Z,15.62
2023-04-20T08:17:08.641Z,15.84
2023-04-20T08:19:36.240Z,16.37
2023-04-20T08:22:05.293Z,16.60
2023-04-20T08:24:32.531Z,16.67
2023-04-20T08:26:59.974Z,16.64
2023-04-20T08:29:29.479Z,16.60
2023-04-20T08:31:57.378Z,16.49
2023-04-20T08:34:24.797Z,16.45
2023-04-20T08:36:52.020Z,16.36
2023-04-20T08:39:21.853Z,16.38
2023-04-20T08:41:53.598Z,16.25
2023-04-20T08:44:20.975Z,16.44
2023-04-20T08:46:49.032Z,16.70
2023-04-20T08:49:18.247Z,17.01
2023-04-20T08:51:46.847Z,16.97
2023-04-20T08:54:15.013Z,17.14
2023-04-20T08:56:45.141Z,17.56
2023-04-20T08:59:14.648Z,18.13
2023-04-20T09:01:43.016Z,18.35
2023-04-20T09:04:23.159Z,18.35
2023-04-20T09:06:52.717Z,18.01
2023-04-20T09:09:21.417Z,17.95
2023-04-20T09:11:59.315Z,17.87
2023-04-20T09:14:26.469Z,17.95
2023-04-20T09:17:01.861Z,18.46
2023-04-20T09:19:30.486Z,18.65
2023-04-20T09:22:00.341Z,18.63
2023-04-20T09:24:32.996Z,18.59
2023-04-20T09:27:02.421Z,18.78
2023-04-20T09:29:30.257Z,19.07
2023-04-20T09:31:57.532Z,19.66
2023-04-20T09:34:25.743Z,19.84
2023-04-20T09:36:55.464Z,20.14
2023-04-20T09:39:24.561Z,19.99
2023-04-20T09:41:52.507Z,20.10
2023-04-20T09:44:19.882Z,20.32
2023-04-20T09:46:47.232Z,20.37
2023-04-20T09:49:15.299Z,20.37
2023-04-20T09:51:46.799Z,20.26
2023-04-20T09:54:15.908Z,19.87
2023-04-20T09:56:43.540Z,19.62
2023-04-20T09:59:11.872Z,20.40
2023-04-20T10:01:39.072Z,20.45
2023-04-20T10:04:14.722Z,19.93
2023-04-20T10:06:53.987Z,19.59
2023-04-20T10:09:24.537Z,19.65
2023-04-20T10:11:54.604Z,19.70
2023-04-20T10:14:26.203Z,19.66
2023-04-20T10:17:01.366Z,20.02
2023-04-20T10:19:42.694Z,19.98
2023-04-20T10:22:12.296Z,20.01
2023-04-20T10:24:40.137Z,20.37
2023-04-20T10:27:20.720Z,20.76
2023-04-20T10:29:49.249Z,20.14
2023-04-20T10:32:27.424Z,20.37
2023-04-20T10:35:09.800Z,20.11
2023-04-20T10:37:48.146Z,20.21
2023-04-20T10:40:15.481Z,20.13
2023-04-20T10:42:43.968Z,20.17
2023-04-20T10:45:12.229Z,20.10
2023-04-20T10:47:40.823Z,20.18
2023-04-20T10:50:09.329Z,20.46
2023-04-20T10:52:39.739Z,20.66
2023-04-20T10:55:17.557Z,20.57
2023-04-20T10:57:48.373Z,21.01
2023-04-20T11:00:21.739Z,21.42
2023-04-20T11:02:50.439Z,21.53
2023-04-20T11:05:22.112Z,21.70
2023-04-20T11:08:01.207Z,21.52
2023-04-20T11:10:39.739Z,21.96
2023-04-20T11:13:07.424Z,21.93
2023-04-20T11:15:35.271Z,21.54
2023-04-20T11:18:09.458Z,21.19
2023-04-20T11:20:36.816Z,20.61
2023-04-20T11:23:06.167Z,20.49
2023-04-20T11:25:33.454Z,20.38
2023-04-20T11:28:08.862Z,20.05
2023-04-20T11:30:42.713Z,20.05
2023-04-20T11:33:10.938Z,19.61
2023-04-20T11:35:40.659Z,19.26
2023-04-20T11:38:08.390Z,19.31
2023-04-20T11:40:36.308Z,19.20
2023-04-20T11:43:04.619Z,18.90
2023-04-20T11:45:36.205Z,18.79
2023-04-20T11:48:05.108Z,18.86
2023-04-20T11:50:32.241Z,18.67
2023-04-20T11:52:59.348Z,18.77
2023-04-20T11:55:26.387Z,18.84
2023-04-20T11:57:53.494Z,18.92
2023-04-20T12:00:21.767Z,19.39
2023-04-20T12:02:49.237Z,19.42
2023-04-20T12:05:16.937Z,19.54
2023-04-20T12:07:44.678Z,19.98
2023-04-20T12:10:12.314Z,20.34
2023-04-20T12:12:42.106Z,20.37
2023-04-20T12:15:10.056Z,21.05
2023-04-20T12:17:37.176Z,21.70
2023-04-20T12:20:09.633Z,21.93
2023-04-20T12:22:37.634Z,22.01
2023-04-20T12:25:06.511Z,22.20
2023-04-20T12:27:34.044Z,21.28
2023-04-20T12:30:01.559Z,21.11
2023-04-20T12:32:28.913Z,21.03
2023-04-20T12:34:56.482Z,21.62
2023-04-20T12:37:23.620Z,22.25
2023-04-20T12:39:51.100Z,22.48
2023-04-20T12:42:18.283Z,22.51
2023-04-20T12:44:45.392Z,22.93
2023-04-20T12:47:13.653Z,23.30
2023-04-20T12:49:40.918Z,23.48
2023-04-20T12:52:09.036Z,22.85
2023-04-20T12:54:36.410Z,22.52
2023-04-20T12:57:03.708Z,22.37
2023-04-20T12:59:30.812Z,22.82
2023-04-20T13:01:58.049Z,22.83
2023-04-20T13:04:25.399Z,22.22
2023-04-20T13:06:52.922Z,21.97
2023-04-20T13:09:20.230Z,22.28
2023-04-20T13:11:47.343Z,22.08
2023-04-20T13:14:14.485Z,22.51
2023-04-20T13:16:41.731Z,22.92
2023-04-20T13:19:08.961Z,23.54
2023-04-20T13:21:36.083Z,23.12
2023-04-20T13:24:03.369Z,22.42
2023-04-20T13:26:30.649Z,21.37
2023-04-20T13:28:58.423Z,20.12
2023-04-20T13:31:25.633Z,19.20
2023-04-20T13:33:56.026Z,18.40
2023-04-20T13:36:24.474Z,17.84
2023-04-20T13:38:53.363Z,17.69
2023-04-20T13:41:20.498Z,17.39
2023-04-20T13:43:47.637Z,17.03
2023-04-20T13:46:15.861Z,16.99
2023-04-20T13:48:43.064Z,16.87
2023-04-20T13:51:10.215Z,16.52
2023-04-20T13:53:37.448Z,16.24
2023-04-20T13:56:05.254Z,15.98
2023-04-20T13:58:32.320Z,15.46
2023-04-20T14:00:59.446Z,15.18
2023-04-20T14:03:27.179Z,15.00
2023-04-20T14:05:54.604Z,14.96
2023-04-20T14:08:23.300Z,14.87
2023-04-20T14:10:50.392Z,14.85
2023-04-20T14:13:17.571Z,14.87
2023-04-20T14:15:44.856Z,14.63
2023-04-20T14:18:12.421Z,14.50
2023-04-20T14:20:39.604Z,14.59
2023-04-20T14:23:09.266Z,14.54
2023-04-20T14:25:38.078Z,14.49
2023-04-20T14:28:05.259Z,14.59
2023-04-20T14:30:32.351Z,14.94
2023-04-20T14:33:00.672Z,15.85
2023-04-20T14:35:28.413Z,16.17
2023-04-20T14:37:55.654Z,15.96
2023-04-20T14:40:22.823Z,16.35
2023-04-20T14:42:49.942Z,16.24
2023-04-20T14:45:17.144Z,16.13
2023-04-20T14:47:44.349Z,15.88
2023-04-20T14:50:11.729Z,15.85
2023-04-20T14:52:38.796Z,15.55
2023-04-20T14:55:06.231Z,15.79
2023-04-20T14:57:34.080Z,16.04
2023-04-20T15:00:01.192Z,15.87
2023-04-20T15:02:28.617Z,15.67
2023-04-20T15:04:58.342Z,15.53
2023-04-20T15:07:25.724Z,15.27
2023-04-20T15:09:53.122Z,15.17
2023-04-20T15:12:20.941Z,14.93
2023-04-20T15:14:48.031Z,14.85
2023-04-20T15:17:15.243Z,14.91
2023-04-20T15:19:45.936Z,14.97
2023-04-20T15:22:13.584Z,15.12
2023-04-20T15:24:41.167Z,15.24
2023-04-20T15:27:09.082Z,15.51
2023-04-20T15:29:36.263Z,15.37
2023-04-20T15:32:03.758Z,15.22
2023-04-20T15:34:31.172Z,15.03
2023-04-20T15:36:58.315Z,14.77
2023-04-20T15:39:25.548Z,14.63
2023-04-20T15:41:53.081Z,14.44
2023-04-20T15:44:20.459Z,14.43
2023-04-20T15:46:47.765Z,14.52
2023-04-20T15:49:15.184Z,14.46
2023-04-20T15:51:43.261Z,14.51
2023-04-20T15:54:11.892Z,14.52
2023-04-20T15:56:39.047Z,14.46
2023-04-20T15:59:06.262Z,14.60
2023-04-20T16:01:33.615Z,14.51
2023-04-20T16:04:01.301Z,14.44
2023-04-20T16:06:28.610Z,14.40
2023-04-20T16:08:57.225Z,14.34
2023-04-20T16:11:24.590Z,14.34
2023-04-20T16:13:51.713Z,14.23
2023-04-20T16:16:19.012Z,14.25
2023-04-20T16:18:46.228Z,14.21
2023-04-20T16:21:13.857Z,14.10
2023-04-20T16:23:41.097Z,14.00
2023-04-20T16:26:08.226Z,13.86
2023-04-20T16:28:35.466Z,13.83
2023-04-20T16:31:02.720Z,13.78
2023-04-20T16:33:32.016Z,13.66
2023-04-20T16:36:00.366Z,13.75
2023-04-20T16:38:27.575Z,13.74
2023-04-20T16:40:54.705Z,13.71
2023-04-20T16:43:21.805Z,13.68
2023-04-20T16:45:49.240Z,13.67
2023-04-20T16:48:16.369Z,13.67
2023-04-20T16:50:43.705Z,13.57
2023-04-20T16:53:11.100Z,13.62
2023-04-20T16:55:38.304Z,13.62
2023-04-20T16:58:05.630Z,13.76
2023-04-20T17:00:33.840Z,13.88
2023-04-20T17:03:01.334Z,14.05
2023-04-20T17:05:28.864Z,14.11
2023-04-20T17:07:55.986Z,14.09
2023-04-20T17:10:23.272Z,14.00
2023-04-20T17:12:50.810Z,13.87
2023-04-20T17:15:17.932Z,13.79
2023-04-20T17:17:45.054Z,13.70
2023-04-20T17:20:12.513Z,13.64
2023-04-20T17:22:39.702Z,13.55
2023-04-20T17:25:07.906Z,13.53
2023-04-20T17:27:35.316Z,13.48
2023-04-20T17:30:02.675Z,13.45
2023-04-20T17:32:29.902Z,13.49
2023-04-20T17:34:57.360Z,13.39
2023-04-20T17:37:24.512Z,13.43
2023-04-20T17:39:51.640Z,13.41
2023-04-20T17:42:18.780Z,13.27
2023-04-20T17:44:45.919Z,13.29
2023-04-20T17:47:14.869Z,13.13
2023-04-20T17:49:43.240Z,13.16
2023-04-20T17:52:12.553Z,13.07
2023-04-20T17:54:39.705Z,13.09
2023-04-20T17:57:08.792Z,13.06
2023-04-20T17:59:35.909Z,13.15
2023-04-20T18:02:03.782Z,13.10
2023-04-20T18:04:31.290Z,13.07
2023-04-20T18:06:58.505Z,13.13
2023-04-20T18:09:25.648Z,13.10
2023-04-20T18:11:53.111Z,13.03
2023-04-20T18:14:21.120Z,13.01
2023-04-20T18:16:51.843Z,12.98
2023-04-20T18:19:19.162Z,13.04
2023-04-20T18:21:46.785Z,12.96
2023-04-20T18:24:13.914Z,13.00
2023-04-20T18:26:41.022Z,12.92
2023-04-20T18:29:08.269Z,12.91
2023-04-20T18:31:35.477Z,12.87
2023-04-20T18:34:02.721Z,12.82
2023-04-20T18:36:30.066Z,12.82
2023-04-20T18:38:57.403Z,12.80
2023-04-20T18:41:25.683Z,12.81
2023-04-20T18:43:53.858Z,12.82
2023-04-20T18:46:21.201Z,12.90
2023-04-20T18:48:48.417Z,12.82
2023-04-20T18:51:15.559Z,12.86
2023-04-20T18:53:42.783Z,12.88
2023-04-20T18:56:10.368Z,12.87
2023-04-20T18:58:37.574Z,12.88
2023-04-20T19:01:05.146Z,12.80
2023-04-20T19:03:32.465Z,12.88
2023-04-20T19:05:59.712Z,12.92
2023-04-20T19:08:26.835Z,12.92
2023-04-20T19:10:57.317Z,12.84
2023-04-20T19:13:24.710Z,12.71
2023-04-20T19:15:57.520Z,12.68
2023-04-20T19:18:26.584Z,12.71
2023-04-20T19:20:54.463Z,12.67
2023-04-20T19:23:22.152Z,12.63
2023-04-20T19:25:49.358Z,12.63
2023-04-20T19:28:16.553Z,12.55
2023-04-20T19:30:44.115Z,12.50
2023-04-20T19:33:11.281Z,12.45
2023-04-20T19:35:38.468Z,12.36
2023-04-20T19:38:05.635Z,12.47
2023-04-20T19:40:32.825Z,12.31
2023-04-20T19:42:59.947Z,12.27
2023-04-20T19:45:27.245Z,12.19
2023-04-20T19:47:54.450Z,12.13
2023-04-20T19:50:21.667Z,12.12
2023-04-20T19:52:48.821Z,12.18
2023-04-20T19:55:15.979Z,12.12
2023-04-20T19:57:43.111Z,11.97
2023-04-20T20:00:11.132Z,11.95
2023-04-20T20:02:42.405Z,11.92
2023-04-20T20:05:10.238Z,11.86
2023-04-20T20:07:37.443Z,11.81
2023-04-20T20:10:05.099Z,11.83
2023-04-20T20:12:32.196Z,11.84
2023-04-20T20:14:59.627Z,11.77
2023-04-20T20:17:27.002Z,11.86
2023-04-20T20:19:55.731Z,11.82
2023-04-20T20:22:23.203Z,11.83
2023-04-20T20:24:54.068Z,11.88
2023-04-20T20:27:21.586Z,11.85
2023-04-20T20:29:49.014Z,11.88
2023-04-20T20:32:16.149Z,11.88
2023-04-20T20:34:43.243Z,11.91
2023-04-20T20:37:10.562Z,11.83
2023-04-20T20:39:37.981Z,11.91
2023-04-20T20:42:06.435Z,11.82
2023-04-20T20:44:38.924Z,11.82
2023-04-20T20:47:06.602Z,11.83
2023-04-20T20:49:33.974Z,11.81
2023-04-20T20:52:02.302Z,11.75
2023-04-20T20:54:29.482Z,11.68
2023-04-20T20:56:57.551Z,11.69
2023-04-20T20:59:24.729Z,11.73
2023-04-20T21:01:51.862Z,11.74
2023-04-20T21:04:19.156Z,11.77
2023-04-20T21:06:46.303Z,11.66
2023-04-20T21:09:15.337Z,11.52
2023-04-20T21:11:42.492Z,11.41
2023-04-20T21:14:09.599Z,11.37
2023-04-20T21:16:36.836Z,11.40
2023-04-20T21:19:03.972Z,11.38
2023-04-20T21:21:32.749Z,11.40
2023-04-20T21:23:59.917Z,11.39
2023-04-20T21:26:27.141Z,11.41
2023-04-20T21:28:54.327Z,11.40
2023-04-20T21:31:21.429Z,11.31
2023-04-20T21:33:48.575Z,11.24
2023-04-20T21:36:15.761Z,11.17
2023-04-20T21:38:42.945Z,11.13
2023-04-20T21:41:10.169Z,11.08
2023-04-20T21:43:37.271Z,11.07
2023-04-20T21:46:04.507Z,11.07
2023-04-20T21:48:31.606Z,11.08
2023-04-20T21:50:58.709Z,11.11
2023-04-20T21:53:25.976Z,11.21
2023-04-20T21:55:53.045Z,11.26
2023-04-20T21:58:20.149Z,11.35
2023-04-20T22:00:47.569Z,11.46
2023-04-20T22:03:14.829Z,11.49
2023-04-20T22:05:42.036Z,11.54
2023-04-20T22:08:09.252Z,11.57
2023-04-20T22:10:36.441Z,11.57
2023-04-20T22:13:03.581Z,11.62
2023-04-20T22:15:30.773Z,11.65
2023-04-20T22:18:00.105Z,11.73
2023-04-20T22:20:27.300Z,11.69
2023-04-20T22:22:54.376Z,11.73
2023-04-20T22:25:21.522Z,11.71
2023-04-20T22:27:48.624Z,11.77
2023-04-20T22:30:15.925Z,11.86
2023-04-20T22:32:43.084Z,11.86
2023-04-20T22:35:10.249Z,11.85
2023-04-20T22:37:37.380Z,11.90
2023-04-20T22:40:08.604Z,11.92
2023-04-20T22:42:38.566Z,11.92
2023-04-20T22:45:06.303Z,11.90
2023-04-20T22:47:33.488Z,11.96
2023-04-20T22:50:01.664Z,12.02
2023-04-20T22:52:28.870Z,11.99
2023-04-20T22:54:56.041Z,12.01
2023-04-20T22:57:23.139Z,12.03
2023-04-20T22:59:50.262Z,12.03
2023-04-20T23:02:17.449Z,11.94
2023-04-20T23:04:44.593Z,12.02
2023-04-20T23:07:11.699Z,12.02
2023-04-20T23:09:41.245Z,12.06
2023-04-20T23:12:11.681Z,12.03
2023-04-20T23:14:42.266Z,12.09
2023-04-20T23:17:09.526Z,12.08
2023-04-20T23:19:38.416Z,12.05
2023-04-20T23:22:08.695Z,12.03
2023-04-20T23:24:36.118Z,11.98
2023-04-20T23:27:03.523Z,11.99
2023-04-20T23:29:30.698Z,12.11
2023-04-20T23:31:57.865Z,12.13
2023-04-20T23:34:25.181Z,12.05
2023-04-20T23:36:53.855Z,12.04
2023-04-20T23:39:21.364Z,12.06
2023-04-20T23:41:48.679Z,12.00
2023-04-20T23:44:15.893Z,12.03
2023-04-20T23:46:43.063Z,12.00
2023-04-20T23:49:10.149Z,11.99
2023-04-20T23:51:37.239Z,11.97
2023-04-20T23:54:04.376Z,11.93
2023-04-20T23:56:31.577Z,11.90
2023-04-20T23:58:59.105Z,11.93
